Time;durP1;ratioP1;P1;durP2;ratioP2;P2;SDS_P1;SDS_P2;PMS_P1;PMS_P2;Temp;Humidity;BMP_temperature;BMP_pressure;BME280_temperature;BME280_humidity;BME280_pressure;Samples;Min_cycle;Max_cycle;Signal;HPM_P1;HPM_P2
2023/07/30 00:00:50;;;;;;;2.50;1.80;;;;;;;15.72;100.00;99853.54;105442;1253;83328;-65
2023/07/30 00:03:37;;;;;;;3.80;1.90;;;;;;;15.73;100.00;99856.46;105476;1253;74697;-65
2023/07/30 00:06:04;;;;;;;4.80;2.20;;;;;;;15.74;100.00;99857.95;105454;1253;69167;-66
2023/07/30 00:08:31;;;;;;;3.60;1.90;;;;;;;15.76;100.00;99858.04;105470;1253;69281;-65
2023/07/30 00:10:58;;;;;;;4.50;2.10;;;;;;;15.78;100.00;99855.55;105452;1257;74148;-65
2023/07/30 00:13:25;;;;;;;7.20;2.80;;;;;;;15.80;100.00;99853.84;105501;1256;83591;-65
2023/07/30 00:15:52;;;;;;;4.70;2.00;;;;;;;15.83;100.00;99856.61;105463;1253;72631;-65
2023/07/30 00:18:19;;;;;;;2.90;2.40;;;;;;;15.85;100.00;99853.52;105434;1253;69180;-66
2023/07/30 00:20:46;;;;;;;4.00;2.10;;;;;;;15.88;100.00;99852.46;105458;1256;69193;-65
2023/07/30 00:23:13;;;;;;;3.40;2.20;;;;;;;15.88;100.00;99857.53;105501;1257;74109;-65
2023/07/30 00:25:40;;;;;;;5.60;2.50;;;;;;;15.86;100.00;99857.84;105494;1257;83400;-66
2023/07/30 00:28:07;;;;;;;4.50;2.50;;;;;;;15.83;100.00;99856.97;105492;1253;72590;-66
2023/07/30 00:30:34;;;;;;;4.50;2.20;;;;;;;15.85;100.00;99860.94;105450;1256;69120;-66
2023/07/30 00:33:01;;;;;;;3.00;2.30;;;;;;;15.86;100.00;99867.23;105511;1257;69661;-66
2023/07/30 00:35:28;;;;;;;6.20;2.20;;;;;;;15.86;100.00;99868.79;105476;1253;73722;-66
2023/07/30 00:37:55;;;;;;;6.50;2.30;;;;;;;15.84;100.00;99870.33;105282;1259;83440;-66
2023/07/30 00:40:23;;;;;;;4.80;2.40;;;;;;;15.86;100.00;99875.88;105464;1253;72690;-66
2023/07/30 00:42:50;;;;;;;3.90;2.20;;;;;;;15.86;100.00;99878.50;105509;1257;69192;-66
2023/07/30 00:45:17;;;;;;;7.10;2.40;;;;;;;15.87;100.00;99877.38;105334;1258;69252;-66
2023/07/30 00:47:44;;;;;;;5.10;2.10;;;;;;;15.87;100.00;99872.59;105510;1253;75021;-66
2023/07/30 00:50:13;;;;;;;3.60;1.80;;;;;;;15.87;100.00;99871.56;105430;1258;82168;-65
2023/07/30 00:52:40;;;;;;;4.30;2.40;;;;;;;15.88;100.00;99875.73;105324;1258;74120;-65
2023/07/30 00:55:08;;;;;;;2.50;2.10;;;;;;;15.86;100.00;99875.81;105498;1253;69168;-65
2023/07/30 00:57:36;;;;;;;6.20;2.00;;;;;;;15.86;100.00;99873.56;105545;1256;69142;-66
2023/07/30 01:00:06;;;;;;;4.50;2.40;;;;;;;15.87;100.00;99864.35;105268;1260;75040;-65
2023/07/30 01:02:33;;;;;;;4.70;2.00;;;;;;;15.87;100.00;99865.00;105275;1259;83454;-65
2023/07/30 01:05:01;;;;;;;7.10;2.50;;;;;;;15.85;100.00;99871.29;105453;1257;72506;-65
2023/07/30 01:07:28;;;;;;;4.70;2.20;;;;;;;15.84;100.00;99873.48;105535;1254;69083;-64
2023/07/30 01:09:56;;;;;;;3.40;2.40;;;;;;;15.83;100.00;99877.75;105430;1259;69116;-65
2023/07/30 01:12:23;;;;;;;5.90;2.40;;;;;;;15.84;100.00;99880.73;105479;1253;74756;-65
2023/07/30 01:14:50;;;;;;;7.90;2.80;;;;;;;15.83;100.00;99882.20;105276;1255;82422;-64
2023/07/30 01:17:17;;;;;;;7.30;2.50;;;;;;;15.83;100.00;99887.12;105218;1257;72550;-63
2023/07/30 01:19:44;;;;;;;6.60;2.70;;;;;;;15.84;100.00;99887.02;105188;1254;69408;-63
2023/07/30 01:22:11;;;;;;;4.60;2.40;;;;;;;15.84;100.00;99888.45;105501;1257;69567;-63
2023/07/30 01:24:38;;;;;;;6.20;2.40;;;;;;;15.84;100.00;99893.34;105472;1257;74743;-66
2023/07/30 01:27:08;;;;;;;5.80;2.70;;;;;;;15.82;100.00;99897.06;105474;1257;83465;-66
2023/07/30 01:29:45;;;;;;;4.00;2.20;;;;;;;15.77;100.00;99897.55;105300;1259;72652;-66
2023/07/30 01:32:13;;;;;;;8.40;2.40;;;;;;;15.72;100.00;99896.98;105454;1253;69323;-66
2023/07/30 01:34:41;;;;;;;9.80;3.00;;;;;;;15.68;100.00;99899.41;105288;1253;69077;-66
2023/07/30 01:37:12;;;;;;;4.50;2.30;;;;;;;15.66;100.00;99901.98;105484;1257;74826;-66
2023/07/30 01:39:41;;;;;;;6.20;2.20;;;;;;;15.66;100.00;99899.15;105255;1259;83241;-66
2023/07/30 01:42:08;;;;;;;3.70;2.20;;;;;;;15.67;100.00;99899.09;105364;1258;73660;-66
2023/07/30 01:44:35;;;;;;;3.90;2.20;;;;;;;15.66;100.00;99906.02;105493;1253;69105;-66
2023/07/30 01:47:02;;;;;;;4.80;2.20;;;;;;;15.63;100.00;99911.85;105285;1258;69261;-66
2023/07/30 01:49:29;;;;;;;3.30;2.20;;;;;;;15.59;100.00;99913.52;105420;1259;73339;-66
2023/07/30 01:51:56;;;;;;;4.90;2.40;;;;;;;15.51;100.00;99910.20;105392;1257;82574;-66
2023/07/30 01:54:23;;;;;;;4.10;2.30;;;;;;;15.47;100.00;99908.31;105381;1253;72670;-66
2023/07/30 01:56:51;;;;;;;3.60;2.30;;;;;;;15.46;100.00;99908.20;105531;1259;69119;-66
2023/07/30 01:59:18;;;;;;;6.40;2.50;;;;;;;15.46;100.00;99908.23;105559;1254;69122;-66
2023/07/30 02:01:45;;;;;;;3.20;2.10;;;;;;;15.43;100.00;99907.70;105320;1259;73360;-66
2023/07/30 02:04:12;;;;;;;4.90;3.00;;;;;;;15.34;100.00;99906.86;105439;1257;82435;-66
2023/07/30 02:06:39;;;;;;;5.50;2.70;;;;;;;15.30;100.00;99907.70;105312;1258;72680;-66
2023/07/30 02:09:06;;;;;;;4.30;2.20;;;;;;;15.30;100.00;99908.90;105435;1253;69114;-66
2023/07/30 02:11:33;;;;;;;4.80;2.80;;;;;;;15.27;100.00;99906.98;105430;1257;69143;-67
2023/07/30 02:14:00;;;;;;;6.40;2.70;;;;;;;15.27;100.00;99906.11;105533;1253;74810;-65
2023/07/30 02:16:27;;;;;;;6.10;2.50;;;;;;;15.27;100.00;99908.02;105247;1258;83674;-66
2023/07/30 02:18:54;;;;;;;5.20;2.40;;;;;;;15.26;100.00;99910.91;105461;1257;73563;-66
2023/07/30 02:21:21;;;;;;;6.50;3.30;;;;;;;15.23;100.00;99909.87;105459;1259;69231;-66
2023/07/30 02:23:48;;;;;;;5.50;2.20;;;;;;;15.21;100.00;99908.64;105461;1257;69175;-66
2023/07/30 02:26:14;;;;;;;5.00;2.50;;;;;;;15.17;100.00;99909.70;105434;1256;74020;-67
2023/07/30 02:28:41;;;;;;;4.00;2.40;;;;;;;15.15;100.00;99912.48;105437;1259;82535;-67
2023/07/30 02:31:09;;;;;;;3.00;2.60;;;;;;;15.11;100.00;99915.23;105456;1259;74034;-67
2023/07/30 02:33:36;;;;;;;4.80;2.50;;;;;;;15.07;100.00;99919.48;105448;1257;69798;-67
2023/07/30 02:36:03;;;;;;;4.50;2.60;;;;;;;15.02;100.00;99930.55;105499;1257;69151;-67
2023/07/30 02:38:30;;;;;;;5.00;2.30;;;;;;;14.97;100.00;99932.11;105514;1257;75106;-67
2023/07/30 02:40:57;;;;;;;3.60;2.30;;;;;;;14.93;100.00;99930.76;105473;1258;83295;-66
2023/07/30 02:43:24;;;;;;;5.90;2.50;;;;;;;14.93;100.00;99929.88;105485;1256;73668;-66
2023/07/30 02:45:51;;;;;;;3.70;2.40;;;;;;;14.92;100.00;99934.52;105259;1258;69228;-66
2023/07/30 02:48:18;;;;;;;3.40;2.20;;;;;;;14.91;100.00;99935.98;105430;1257;69129;-67
2023/07/30 02:50:45;;;;;;;8.30;2.40;;;;;;;14.94;100.00;99936.18;105239;1254;72780;-66
2023/07/30 02:53:12;;;;;;;6.20;3.00;;;;;;;14.99;100.00;99934.85;105211;1258;83341;-67
2023/07/30 02:55:39;;;;;;;7.60;2.90;;;;;;;14.99;100.00;99940.10;105521;1253;72613;-67
2023/07/30 02:58:06;;;;;;;4.90;2.60;;;;;;;15.00;100.00;99937.90;105466;1258;69017;-67
2023/07/30 03:00:32;;;;;;;7.80;2.70;;;;;;;15.01;100.00;99941.19;105168;1258;69225;-66
2023/07/30 03:03:00;;;;;;;4.20;2.50;;;;;;;14.98;100.00;99939.59;105540;1253;75043;-67
2023/07/30 03:05:27;;;;;;;7.90;2.90;;;;;;;14.96;100.00;99941.86;105552;1258;83620;-67
2023/07/30 03:07:54;;;;;;;5.00;2.80;;;;;;;14.95;100.00;99938.71;105465;1254;72621;-67
2023/07/30 03:10:21;;;;;;;5.50;2.80;;;;;;;14.99;100.00;99936.58;105476;1254;69205;-67
2023/07/30 03:12:48;;;;;;;2.70;2.30;;;;;;;15.01;100.00;99936.41;105262;1259;69154;-67
2023/07/30 03:15:15;;;;;;;5.50;2.50;;;;;;;14.99;100.00;99941.86;105471;1266;74433;-67
2023/07/30 03:17:42;;;;;;;3.80;2.10;;;;;;;14.94;100.00;99945.42;105456;1257;83280;-66
2023/07/30 03:20:10;;;;;;;2.90;2.30;;;;;;;14.90;100.00;99943.63;105412;1256;73656;-67
2023/07/30 03:22:38;;;;;;;4.30;2.50;;;;;;;14.84;100.00;99945.76;105526;1254;69176;-68
2023/07/30 03:25:06;;;;;;;3.90;2.70;;;;;;;14.82;100.00;99942.57;105490;1256;69129;-70
2023/07/30 03:27:32;;;;;;;4.30;2.50;;;;;;;14.83;100.00;99944.42;105441;1257;73715;-68
2023/07/30 03:29:59;;;;;;;4.40;2.20;;;;;;;14.80;100.00;99945.49;105494;1254;83234;-68
2023/07/30 03:32:27;;;;;;;6.60;2.30;;;;;;;14.77;100.00;99947.96;105536;1256;73537;-67
2023/07/30 03:34:54;;;;;;;7.30;2.80;;;;;;;14.73;100.00;99948.52;105577;1254;69071;-68
2023/07/30 03:37:21;;;;;;;5.20;2.40;;;;;;;14.71;100.00;99952.16;105545;1257;69233;-68
2023/07/30 03:39:48;;;;;;;4.60;2.50;;;;;;;14.66;100.00;99948.40;105510;1258;73864;-67
2023/07/30 03:42:16;;;;;;;3.60;2.50;;;;;;;14.65;100.00;99946.89;105490;1257;83509;-67
2023/07/30 03:44:43;;;;;;;6.60;2.60;;;;;;;14.67;100.00;99948.59;105437;1259;72804;-67
2023/07/30 03:47:10;;;;;;;4.50;2.50;;;;;;;14.65;100.00;99950.58;105569;1255;69154;-67
2023/07/30 03:49:37;;;;;;;3.60;2.20;;;;;;;14.64;100.00;99950.34;105507;1255;69806;-67
2023/07/30 03:52:05;;;;;;;5.50;2.50;;;;;;;14.65;100.00;99947.11;105465;1257;73899;-66
2023/07/30 03:54:41;;;;;;;5.90;2.60;;;;;;;14.66;100.00;99950.73;105473;1257;82555;-67
2023/07/30 03:57:07;;;;;;;6.10;2.60;;;;;;;14.72;100.00;99956.88;105451;1253;72887;-67
2023/07/30 03:59:35;;;;;;;4.10;2.70;;;;;;;14.78;100.00;99954.56;105477;1257;69169;-67
2023/07/30 04:02:02;;;;;;;8.60;2.70;;;;;;;14.84;100.00;99951.39;105471;1257;69123;-67
2023/07/30 04:04:28;;;;;;;4.30;2.70;;;;;;;14.88;100.00;99948.88;105220;1254;74046;-67
2023/07/30 04:06:55;;;;;;;5.00;2.50;;;;;;;14.88;100.00;99955.00;105471;1259;83612;-67
2023/07/30 04:09:23;;;;;;;5.40;2.80;;;;;;;14.92;100.00;99954.05;105449;1257;72708;-68
2023/07/30 04:11:50;;;;;;;6.00;2.70;;;;;;;14.95;100.00;99951.23;105458;1257;69061;-67
2023/07/30 04:14:17;;;;;;;4.20;2.60;;;;;;;14.99;100.00;99957.48;105484;1264;69089;-67
2023/07/30 04:16:46;;;;;;;8.60;2.60;;;;;;;15.02;100.00;99958.71;105442;1256;73891;-67
2023/07/30 04:19:14;;;;;;;6.50;2.80;;;;;;;15.06;100.00;99958.14;105512;1252;82894;-67
2023/07/30 04:21:41;;;;;;;6.30;2.60;;;;;;;15.08;100.00;99959.89;105447;1256;73029;-67
2023/07/30 04:24:08;;;;;;;8.20;2.90;;;;;;;15.13;100.00;99955.89;105445;1259;69166;-67
2023/07/30 04:26:35;;;;;;;4.80;3.10;;;;;;;15.17;100.00;99957.09;105523;1262;69123;-67
2023/07/30 04:29:02;;;;;;;4.20;2.50;;;;;;;15.19;100.00;99959.76;105165;1260;73686;-67
2023/07/30 04:31:29;;;;;;;8.70;2.70;;;;;;;15.20;100.00;99963.73;105224;1259;83327;-67
2023/07/30 04:33:58;;;;;;;4.90;2.70;;;;;;;15.24;100.00;99963.68;105527;1255;72931;-68
2023/07/30 04:36:25;;;;;;;3.20;2.80;;;;;;;15.27;100.00;99966.14;105504;1257;69118;-69
2023/07/30 04:38:54;;;;;;;4.90;3.20;;;;;;;15.31;100.00;99966.03;105515;1257;69417;-70
2023/07/30 04:41:26;;;;;;;6.10;2.90;;;;;;;15.37;100.00;99965.13;105304;1257;74701;-68
2023/07/30 04:43:56;;;;;;;;;;;;;;;15.42;100.00;99968.35;105488;1257;83285;-66
2023/07/30 04:46:25;;;;;;;6.40;2.90;;;;;;;15.48;100.00;99965.31;105495;1254;72654;-66
2023/07/30 04:48:52;;;;;;;5.00;3.40;;;;;;;15.53;100.00;99961.82;105230;1258;69256;-67
2023/07/30 04:51:20;;;;;;;10.20;3.20;;;;;;;15.58;100.00;99961.83;105505;1259;69189;-67
2023/07/30 04:53:47;;;;;;;5.10;2.90;;;;;;;15.62;100.00;99962.98;105463;1257;75002;-67
2023/07/30 04:56:14;;;;;;;5.80;2.80;;;;;;;15.67;100.00;99967.77;105453;1256;82504;-67
2023/07/30 04:58:41;;;;;;;4.60;2.60;;;;;;;15.72;100.00;99967.27;105523;1256;73594;-66
2023/07/30 05:01:08;;;;;;;4.50;2.60;;;;;;;15.77;100.00;99968.38;105260;1260;69205;-66
2023/07/30 05:03:35;;;;;;;4.30;3.00;;;;;;;15.83;100.00;99970.60;105465;1257;69150;-66
2023/07/30 05:06:02;;;;;;;5.60;2.50;;;;;;;15.91;100.00;99971.40;105489;1259;73770;-66
2023/07/30 05:08:29;;;;;;;8.20;3.40;;;;;;;15.96;100.00;99969.05;105422;1258;82836;-66
2023/07/30 05:10:56;;;;;;;9.40;2.90;;;;;;;16.02;100.00;99968.50;105455;1257;72559;-66
2023/07/30 05:13:23;;;;;;;4.90;2.30;;;;;;;16.08;100.00;99967.23;105494;1265;69660;-66
2023/07/30 05:15:50;;;;;;;5.90;2.80;;;;;;;16.17;100.00;99968.02;105458;1257;69053;-66
2023/07/30 05:18:17;;;;;;;6.30;3.00;;;;;;;16.30;100.00;99966.64;105483;1261;73823;-66
2023/07/30 05:20:46;;;;;;;3.70;2.40;;;;;;;16.42;100.00;99968.29;105432;1257;83161;-66
2023/07/30 05:23:13;;;;;;;3.90;2.70;;;;;;;16.51;100.00;99963.45;105441;1257;73779;-65
2023/07/30 05:25:40;;;;;;;4.00;2.50;;;;;;;16.60;100.00;99967.73;105532;1258;69204;-66
2023/07/30 05:28:07;;;;;;;3.90;2.30;;;;;;;16.70;100.00;99968.77;105568;1258;69106;-66
2023/07/30 05:30:34;;;;;;;5.60;2.60;;;;;;;16.82;100.00;99970.13;105470;1255;75077;-65
2023/07/30 05:33:00;;;;;;;3.00;2.50;;;;;;;16.91;100.00;99970.35;105458;1260;82496;-65
2023/07/30 05:35:28;;;;;;;2.80;2.10;;;;;;;17.01;100.00;99972.66;105517;1257;73701;-64
2023/07/30 05:37:58;;;;;;;5.20;2.30;;;;;;;17.11;100.00;99973.57;105434;1254;69186;-65
2023/07/30 05:40:25;;;;;;;5.60;2.70;;;;;;;17.19;100.00;99976.58;105524;1257;69211;-64
2023/07/30 05:42:52;;;;;;;4.60;2.20;;;;;;;17.28;100.00;99977.50;105444;1257;75239;-65
2023/07/30 05:45:19;;;;;;;4.40;2.50;;;;;;;17.36;100.00;99978.48;105459;1258;82822;-65
2023/07/30 05:47:46;;;;;;;3.70;1.90;;;;;;;17.44;100.00;99982.51;105522;1254;73799;-65
2023/07/30 05:50:13;;;;;;;3.30;2.30;;;;;;;17.51;100.00;99978.98;105552;1257;69082;-65
2023/07/30 05:52:40;;;;;;;8.10;2.50;;;;;;;17.59;100.00;99984.20;105471;1254;70969;-65
2023/07/30 05:55:07;;;;;;;3.10;1.90;;;;;;;17.68;100.00;99981.46;105461;1257;74798;-65
2023/07/30 05:57:34;;;;;;;3.10;2.10;;;;;;;17.76;100.00;99979.85;105563;1254;83262;-65
2023/07/30 06:00:02;;;;;;;6.20;2.90;;;;;;;17.83;100.00;99976.15;105469;1257;72250;-65
2023/07/30 06:02:38;;;;;;;4.20;2.10;;;;;;;17.92;100.00;99974.27;105403;1254;69062;-65
2023/07/30 06:05:05;;;;;;;2.70;1.90;;;;;;;18.00;100.00;99976.31;105563;1257;69509;-65
2023/07/30 06:07:32;;;;;;;7.50;2.10;;;;;;;18.07;100.00;99978.75;105462;1259;74716;-65
2023/07/30 06:09:59;;;;;;;4.30;2.10;;;;;;;18.14;100.00;99977.71;105584;1258;82506;-65
2023/07/30 06:12:26;;;;;;;2.30;2.00;;;;;;;18.21;100.00;99978.96;105585;1254;73761;-64
2023/07/30 06:14:53;;;;;;;4.20;2.10;;;;;;;18.29;100.00;99972.54;105471;1254;69206;-66
2023/07/30 06:17:20;;;;;;;3.30;2.40;;;;;;;18.38;100.00;99973.77;105583;1252;69157;-70
2023/07/30 06:19:47;;;;;;;4.40;2.20;;;;;;;18.47;100.00;99974.52;105624;1257;74866;-67
2023/07/30 06:22:14;;;;;;;3.70;2.60;;;;;;;18.55;100.00;99977.31;105462;1257;83145;-67
2023/07/30 06:24:41;;;;;;;3.20;2.20;;;;;;;18.61;100.00;99980.00;105534;1255;72641;-67
2023/07/30 06:27:09;;;;;;;3.70;2.40;;;;;;;18.67;100.00;99977.40;105508;1256;69187;-62
2023/07/30 06:29:36;;;;;;;5.40;2.00;;;;;;;18.72;100.00;99978.05;105508;1257;69182;-65
2023/07/30 06:32:04;;;;;;;2.40;2.00;;;;;;;18.78;99.82;99982.23;105821;1254;74167;-63
2023/07/30 06:34:31;;;;;;;3.00;2.00;;;;;;;18.84;99.58;99984.62;105633;1258;83444;-65
2023/07/30 06:36:58;;;;;;;3.30;1.80;;;;;;;18.91;99.35;99990.80;105505;1255;72747;-68
2023/07/30 06:39:25;;;;;;;2.50;2.10;;;;;;;18.99;98.85;99989.28;105556;1254;69178;-65
2023/07/30 06:41:52;;;;;;;2.90;1.90;;;;;;;19.05;98.34;99995.15;105484;1256;69090;-64
2023/07/30 06:44:19;;;;;;;2.30;1.80;;;;;;;19.11;98.16;99998.75;105533;1254;75098;-64
2023/07/30 06:46:46;;;;;;;1.90;1.50;;;;;;;19.19;98.07;100007.17;105508;1257;83280;-65
2023/07/30 06:49:13;;;;;;;3.60;1.90;;;;;;;19.29;97.98;100003.23;105730;1257;73657;-65
2023/07/30 06:51:40;;;;;;;3.10;1.60;;;;;;;19.36;97.31;100003.72;105684;1255;69323;-65
2023/07/30 06:54:08;;;;;;;3.90;1.80;;;;;;;19.43;96.62;100005.14;105693;1256;69163;-65
2023/07/30 06:56:35;;;;;;;4.30;2.10;;;;;;;19.49;96.37;100004.82;105700;1257;73926;-65
2023/07/30 06:59:03;;;;;;;2.50;1.90;;;;;;;19.54;96.03;100003.29;105451;1257;82386;-63
2023/07/30 07:01:30;;;;;;;2.20;1.90;;;;;;;19.62;95.81;100003.90;105696;1257;73696;-63
2023/07/30 07:03:57;;;;;;;2.80;1.80;;;;;;;19.71;95.36;100005.89;105706;1258;69070;-63
2023/07/30 07:06:24;;;;;;;2.30;1.70;;;;;;;19.75;94.68;100003.58;105718;1256;70001;-63
2023/07/30 07:08:50;;;;;;;1.60;1.50;;;;;;;19.81;94.78;100000.25;105645;1254;74777;-63
2023/07/30 07:11:17;;;;;;;3.20;2.00;;;;;;;19.90;94.52;100002.18;105542;1254;82773;-63
2023/07/30 07:13:44;;;;;;;2.10;1.80;;;;;;;19.99;94.02;100003.94;105615;1258;73963;-63
2023/07/30 07:16:11;;;;;;;3.50;1.80;;;;;;;20.06;93.82;100007.27;105631;1258;69218;-63
2023/07/30 07:18:38;;;;;;;2.70;2.10;;;;;;;20.15;93.56;100006.37;105646;1256;69123;-63
2023/07/30 07:21:05;;;;;;;3.40;1.90;;;;;;;20.22;92.98;100008.08;105551;1254;74896;-62
2023/07/30 07:23:32;;;;;;;4.00;1.90;;;;;;;20.26;92.55;100004.71;105536;1257;83159;-62
2023/07/30 07:25:59;;;;;;;3.40;1.90;;;;;;;20.32;92.32;100006.17;105473;1258;73949;-62
2023/07/30 07:28:26;;;;;;;3.20;1.80;;;;;;;20.38;91.97;100002.09;105413;1258;69616;-62
2023/07/30 07:30:54;;;;;;;5.70;1.70;;;;;;;20.43;91.35;100000.77;105432;1254;69131;-62
2023/07/30 07:33:21;;;;;;;4.00;2.00;;;;;;;20.49;91.20;99999.37;105519;1254;73888;-62
2023/07/30 07:35:48;;;;;;;3.40;1.80;;;;;;;20.60;91.19;100001.53;105442;1257;83465;-61
2023/07/30 07:38:15;;;;;;;2.20;1.70;;;;;;;20.69;90.67;100001.80;105608;1257;72602;-62
2023/07/30 07:40:43;;;;;;;4.20;1.50;;;;;;;20.77;90.45;100000.29;105479;1259;69966;-62
2023/07/30 07:43:10;;;;;;;3.20;1.80;;;;;;;20.85;90.03;99999.88;105393;1258;69203;-61
2023/07/30 07:45:37;;;;;;;4.00;1.50;;;;;;;20.97;89.64;99998.36;105421;1257;170988;-62
2023/07/30 07:48:04;;;;;;;1.80;1.50;;;;;;;21.08;88.87;99998.45;105444;1257;84295;-62
2023/07/30 07:50:31;;;;;;;2.00;1.70;;;;;;;21.15;88.16;99997.42;105561;1254;73907;-62
2023/07/30 07:52:58;;;;;;;1.90;1.30;;;;;;;21.23;87.49;99998.56;105667;1254;69131;-62
2023/07/30 07:55:25;;;;;;;1.60;1.50;;;;;;;21.29;86.78;99999.59;105520;1257;69378;-62
2023/07/30 07:57:52;;;;;;;1.80;1.50;;;;;;;21.37;86.17;99996.55;105652;1257;72518;-59
2023/07/30 08:00:19;;;;;;;2.00;1.30;;;;;;;21.49;85.77;100001.08;105466;1257;83248;-59
2023/07/30 08:02:46;;;;;;;3.00;1.70;;;;;;;21.59;85.47;99999.84;105624;1258;73679;-60
2023/07/30 08:05:19;;;;;;;2.00;1.40;;;;;;;21.69;84.99;99997.47;105466;1257;69168;-59
2023/07/30 08:07:46;;;;;;;2.10;1.50;;;;;;;21.77;84.08;99991.11;105481;1257;69100;-59
2023/07/30 08:10:13;;;;;;;1.50;1.30;;;;;;;21.82;83.54;99993.08;105638;1257;73793;-59
2023/07/30 08:12:40;;;;;;;3.10;1.50;;;;;;;21.88;83.30;99997.73;105718;1254;82466;-59
2023/07/30 08:15:07;;;;;;;3.30;1.50;;;;;;;21.94;82.82;99994.88;105542;1257;72706;-59
2023/07/30 08:17:34;;;;;;;2.20;1.50;;;;;;;22.03;82.40;99986.63;105718;1257;69164;-59
2023/07/30 08:20:01;;;;;;;3.00;1.70;;;;;;;22.12;82.15;99983.11;105525;1254;69474;-59
2023/07/30 08:22:28;;;;;;;3.60;1.30;;;;;;;22.22;81.99;99985.35;105471;1254;73819;-59
2023/07/30 08:24:55;;;;;;;2.30;1.50;;;;;;;22.35;81.44;99988.30;105465;1257;82458;-59
2023/07/30 08:27:22;;;;;;;1.50;1.20;;;;;;;22.43;80.22;99987.75;105389;1254;72833;-59
2023/07/30 08:29:49;;;;;;;1.80;1.40;;;;;;;22.49;80.16;99990.19;105449;1254;69080;-60
2023/07/30 08:32:16;;;;;;;2.80;1.30;;;;;;;22.63;80.09;99993.63;105477;1257;69183;-60
2023/07/30 08:34:43;;;;;;;2.80;1.50;;;;;;;22.81;79.54;99997.86;105671;1254;74805;-60
2023/07/30 08:37:10;;;;;;;2.60;1.40;;;;;;;22.99;79.10;99998.86;105470;1257;83237;-59
2023/07/30 08:39:37;;;;;;;2.10;1.50;;;;;;;23.13;78.22;99997.36;105461;1257;73966;-59
2023/07/30 08:42:04;;;;;;;1.40;1.20;;;;;;;23.22;77.56;100002.89;105525;1254;69228;-59
2023/07/30 08:44:31;;;;;;;2.20;1.60;;;;;;;23.36;77.00;100001.36;105561;1254;69134;-58
2023/07/30 08:46:58;;;;;;;1.90;1.50;;;;;;;23.48;75.99;99999.42;105539;1254;74699;-58
2023/07/30 08:49:25;;;;;;;1.70;1.20;;;;;;;23.63;75.77;100000.55;105456;1255;82478;-58
2023/07/30 08:51:53;;;;;;;1.50;1.30;;;;;;;23.77;75.05;100000.38;105634;1258;73743;-58
2023/07/30 08:54:20;;;;;;;1.80;1.30;;;;;;;23.92;74.28;99998.61;105704;1254;69067;-58
2023/07/30 08:56:48;;;;;;;4.60;1.40;;;;;;;24.06;73.48;99994.34;105646;1254;69730;-58
2023/07/30 08:59:16;;;;;;;1.70;1.20;;;;;;;24.21;72.98;99996.33;105646;1253;73900;-58
2023/07/30 09:01:44;;;;;;;1.60;1.50;;;;;;;24.38;72.64;99991.30;105692;1257;83184;-57
2023/07/30 09:04:11;;;;;;;3.40;1.30;;;;;;;24.58;72.12;99990.71;105495;1254;73824;-57
2023/07/30 09:06:38;;;;;;;1.30;1.00;;;;;;;24.70;71.21;99988.04;105633;1260;69010;-58
2023/07/30 09:09:07;;;;;;;2.20;1.40;;;;;;;24.82;70.81;99991.63;105482;1254;69109;-58
2023/07/30 09:11:33;;;;;;;2.30;1.40;;;;;;;24.97;70.28;99990.58;105639;1257;73819;-58
2023/07/30 09:14:02;;;;;;;2.20;1.10;;;;;;;25.09;69.72;99988.25;105559;1255;82301;-59
2023/07/30 09:16:29;;;;;;;2.10;1.30;;;;;;;25.21;69.15;99987.20;105582;1256;73703;-59
2023/07/30 09:18:56;;;;;;;1.50;1.20;;;;;;;25.34;68.87;99984.40;105628;1254;69066;-61
2023/07/30 09:21:34;;;;;;;3.50;1.10;;;;;;;25.52;68.40;99986.30;105536;1253;69174;-61
2023/07/30 09:24:05;;;;;;;2.30;1.50;;;;;;;25.62;67.45;99987.92;105623;1256;73829;-61
2023/07/30 09:26:43;;;;;;;2.80;1.30;;;;;;;25.72;66.62;99987.92;105664;1257;83487;-62
2023/07/30 09:29:10;;;;;;;2.60;1.40;;;;;;;25.79;66.14;99989.30;105602;1257;73245;-61
2023/07/30 09:31:52;;;;;;;1.50;1.20;;;;;;;25.85;65.55;99986.55;105671;1254;69298;-62
2023/07/30 09:34:19;;;;;;;1.70;1.30;;;;;;;25.99;65.17;99983.39;105568;1253;69233;-59
2023/07/30 09:36:47;;;;;;;2.90;1.20;;;;;;;26.17;64.78;99985.51;105707;1253;74746;-58
2023/07/30 09:39:23;;;;;;;2.00;1.40;;;;;;;26.24;64.11;99985.27;105527;1253;83465;-59
2023/07/30 09:41:52;;;;;;;2.10;1.40;;;;;;;26.38;63.86;99989.86;105657;1257;72754;-59
2023/07/30 09:44:20;;;;;;;2.60;1.70;;;;;;;26.47;63.12;99987.77;105721;1256;69065;-58
2023/07/30 09:46:49;;;;;;;3.50;1.40;;;;;;;26.47;62.69;99985.86;105602;1254;69115;-59
2023/07/30 09:49:17;;;;;;;1.70;1.40;;;;;;;26.38;62.10;99984.13;105669;1253;74699;-59
2023/07/30 09:51:44;;;;;;;5.70;4.10;;;;;;;26.33;62.23;99983.56;105590;1257;83666;-58
2023/07/30 09:54:13;;;;;;;1.60;1.40;;;;;;;26.32;61.94;99987.29;105540;1254;73663;-58
2023/07/30 09:56:41;;;;;;;1.50;1.30;;;;;;;26.16;61.08;99986.04;105572;1254;69130;-58
2023/07/30 09:59:09;;;;;;;1.80;1.50;;;;;;;26.02;60.97;99984.70;105569;1257;69125;-58
2023/07/30 10:01:49;;;;;;;2.50;1.50;;;;;;;26.05;61.12;99982.25;105593;1253;74437;-57
2023/07/30 10:04:18;;;;;;;;;;;;;;;26.09;60.90;99986.58;105670;1257;81925;-58
2023/07/30 10:06:49;;;;;;;3.60;1.80;;;;;;;26.05;60.32;99984.90;105549;1254;73602;-58
2023/07/30 10:09:17;;;;;;;4.10;1.50;;;;;;;26.00;60.20;99982.89;105584;1257;69150;-58
2023/07/30 10:11:45;;;;;;;2.50;1.40;;;;;;;26.06;60.49;99975.84;105598;1257;69193;-58
2023/07/30 10:14:13;;;;;;;2.40;1.60;;;;;;;26.11;60.06;99973.02;105629;1257;75026;-58
2023/07/30 10:16:50;;;;;;;1.50;1.40;;;;;;;26.13;59.93;99971.81;105535;1253;83494;-59
2023/07/30 10:19:18;;;;;;;2.10;1.60;;;;;;;26.18;59.84;99974.67;105605;1253;73647;-57
2023/07/30 10:21:45;;;;;;;2.00;1.60;;;;;;;26.23;59.78;99976.28;105574;1252;69212;-57
2023/07/30 10:24:13;;;;;;;3.20;1.60;;;;;;;26.27;59.83;99977.14;105646;1252;69074;-58
2023/07/30 10:26:40;;;;;;;2.20;1.50;;;;;;;26.24;59.72;99976.85;105740;1253;74363;-58
2023/07/30 10:29:17;;;;;;;1.30;1.10;;;;;;;26.15;59.17;99974.10;105512;1254;82507;-58
2023/07/30 10:31:48;;;;;;;1.70;1.40;;;;;;;26.04;59.06;99979.09;105574;1253;73541;-58
2023/07/30 10:34:15;;;;;;;2.30;1.20;;;;;;;25.93;58.99;99977.01;105649;1253;69507;-59
2023/07/30 10:36:46;;;;;;;2.50;1.40;;;;;;;26.01;58.83;99975.97;105565;1257;69169;-59
2023/07/30 10:39:17;;;;;;;1.40;1.30;;;;;;;26.30;59.26;99971.99;105596;1256;73957;-58
2023/07/30 10:41:46;;;;;;;3.50;1.40;;;;;;;26.63;59.13;99969.16;105513;1253;82197;-58
2023/07/30 10:44:18;;;;;;;2.00;1.40;;;;;;;26.98;58.39;99966.11;105737;1254;73270;-60
2023/07/30 10:46:46;;;;;;;1.70;1.20;;;;;;;27.37;58.34;99961.80;105489;1252;69113;-61
2023/07/30 10:49:13;;;;;;;1.70;1.40;;;;;;;27.76;57.62;99957.77;105475;1254;69116;-60
2023/07/30 10:51:40;;;;;;;1.90;1.40;;;;;;;28.30;57.19;99956.52;105533;1257;75085;-60
2023/07/30 10:54:10;;;;;;;2.20;1.30;;;;;;;28.78;56.15;99955.74;105421;1253;82307;-60
2023/07/30 10:56:37;;;;;;;1.90;1.40;;;;;;;29.31;55.64;99958.52;105539;1256;73669;-60
2023/07/30 10:59:07;;;;;;;2.00;1.10;;;;;;;29.62;54.68;99957.61;105519;1253;69090;-60
2023/07/30 11:01:41;;;;;;;1.70;1.10;;;;;;;29.53;53.51;99956.13;105487;1254;69051;-60
2023/07/30 11:04:10;;;;;;;2.70;1.30;;;;;;;29.34;53.13;99950.63;105516;1253;73867;-60
2023/07/30 11:06:38;;;;;;;1.30;1.20;;;;;;;29.08;52.73;99953.06;105534;1253;82364;-60
2023/07/30 11:09:05;;;;;;;2.50;1.30;;;;;;;28.86;52.35;99952.08;105495;1257;73970;-61
2023/07/30 11:11:33;;;;;;;2.90;1.40;;;;;;;28.76;52.60;99939.31;105632;1251;69208;-60
2023/07/30 11:14:00;;;;;;;2.40;1.40;;;;;;;28.91;52.65;99943.96;105536;1257;69231;-59
2023/07/30 11:16:27;;;;;;;3.00;1.20;;;;;;;28.62;51.70;99944.56;105363;1254;75566;-59
2023/07/30 11:18:54;;;;;;;2.40;1.50;;;;;;;28.39;52.01;99941.43;105540;1253;82582;-59
2023/07/30 11:21:21;;;;;;;6.00;1.20;;;;;;;28.43;52.23;99942.75;105495;1253;72586;-59